sensor_id;sensor_type;location;lat;lon;timestamp;P1;durP1;ratioP1;P2;durP2;ratioP2
37485;SDS011;23341;50.296;18.960;2022-08-21T03:08:47;29.90;;;20.88;;
37485;SDS011;23341;50.296;18.960;2022-08-21T03:13:57;26.25;;;21.33;;
37485;SDS011;23341;50.296;18.960;2022-08-21T03:19:01;28.17;;;22.05;;
37485;SDS011;23341;50.296;18.960;2022-08-21T03:24:06;31.00;;;21.73;;
37485;SDS011;23341;50.296;18.960;2022-08-21T03:29:11;25.27;;;20.75;;
37485;SDS011;23341;50.296;18.960;2022-08-21T03:34:14;28.83;;;22.42;;
37485;SDS011;23341;50.296;18.960;2022-08-21T03:39:19;32.47;;;23.92;;
37485;SDS011;23341;50.296;18.960;2022-08-21T03:44:23;27.83;;;22.67;;
37485;SDS011;23341;50.296;18.960;2022-08-21T03:49:27;34.67;;;23.38;;
37485;SDS011;23341;50.296;18.960;2022-08-21T03:54:33;31.20;;;22.95;;
37485;SDS011;23341;50.296;18.960;2022-08-21T03:59:36;31.48;;;22.90;;
37485;SDS011;23341;50.296;18.960;2022-08-21T04:04:41;29.17;;;23.20;;
37485;SDS011;23341;50.296;18.960;2022-08-21T04:09:46;28.35;;;22.88;;
37485;SDS011;23341;50.296;18.960;2022-08-21T04:14:49;31.55;;;25.80;;
37485;SDS011;23341;50.296;18.960;2022-08-21T04:19:55;37.95;;;25.58;;
37485;SDS011;23341;50.296;18.960;2022-08-21T04:24:59;34.13;;;24.90;;
37485;SDS011;23341;50.296;18.960;2022-08-21T04:30:04;34.10;;;24.67;;
37485;SDS011;23341;50.296;18.960;2022-08-21T04:35:09;34.15;;;25.83;;
37485;SDS011;23341;50.296;18.960;2022-08-21T04:40:15;32.85;;;25.80;;
37485;SDS011;23341;50.296;18.960;2022-08-21T04:45:22;35.83;;;25.48;;
37485;SDS011;23341;50.296;18.960;2022-08-21T04:50:28;37.80;;;29.45;;
37485;SDS011;23341;50.296;18.960;2022-08-21T04:55:39;38.00;;;29.52;;
37485;SDS011;23341;50.296;18.960;2022-08-21T05:00:44;40.20;;;28.27;;
37485;SDS011;23341;50.296;18.960;2022-08-21T05:05:49;36.25;;;26.60;;
37485;SDS011;23341;50.296;18.960;2022-08-21T05:10:54;35.55;;;26.05;;
37485;SDS011;23341;50.296;18.960;2022-08-21T05:16:01;36.67;;;27.30;;
37485;SDS011;23341;50.296;18.960;2022-08-21T05:21:05;33.83;;;25.98;;
37485;SDS011;23341;50.296;18.960;2022-08-21T05:26:10;39.33;;;28.75;;
37485;SDS011;23341;50.296;18.960;2022-08-21T05:31:19;34.17;;;27.77;;
37485;SDS011;23341;50.296;18.960;2022-08-21T05:36:23;38.60;;;29.02;;
37485;SDS011;23341;50.296;18.960;2022-08-21T05:41:28;48.72;;;32.80;;
37485;SDS011;23341;50.296;18.960;2022-08-21T05:46:36;46.45;;;32.03;;
37485;SDS011;23341;50.296;18.960;2022-08-21T05:51:39;44.22;;;30.45;;
37485;SDS011;23341;50.296;18.960;2022-08-21T05:56:45;38.53;;;29.77;;
37485;SDS011;23341;50.296;18.960;2022-08-21T06:01:49;38.38;;;29.50;;
37485;SDS011;23341;50.296;18.960;2022-08-21T06:06:54;37.40;;;28.48;;
37485;SDS011;23341;50.296;18.960;2022-08-21T06:12:02;42.55;;;28.63;;
37485;SDS011;23341;50.296;18.960;2022-08-21T06:17:08;41.40;;;29.25;;
37485;SDS011;23341;50.296;18.960;2022-08-21T06:22:13;44.58;;;31.10;;
37485;SDS011;23341;50.296;18.960;2022-08-21T06:27:18;49.08;;;33.45;;
37485;SDS011;23341;50.296;18.960;2022-08-21T06:32:27;24.27;;;19.63;;
37485;SDS011;23341;50.296;18.960;2022-08-21T06:37:30;13.38;;;12.00;;
37485;SDS011;23341;50.296;18.960;2022-08-21T06:42:35;11.40;;;10.40;;
37485;SDS011;23341;50.296;18.960;2022-08-21T06:47:42;7.45;;;5.43;;
37485;SDS011;23341;50.296;18.960;2022-08-21T06:52:45;3.72;;;3.40;;
37485;SDS011;23341;50.296;18.960;2022-08-21T06:57:50;3.67;;;2.80;;
37485;SDS011;23341;50.296;18.960;2022-08-21T07:02:54;5.28;;;4.13;;
37485;SDS011;23341;50.296;18.960;2022-08-21T07:07:57;4.85;;;3.22;;
37485;SDS011;23341;50.296;18.960;2022-08-21T07:13:02;3.90;;;3.50;;
37485;SDS011;23341;50.296;18.960;2022-08-21T07:18:06;4.40;;;3.53;;
37485;SDS011;23341;50.296;18.960;2022-08-21T07:23:12;7.30;;;5.45;;
37485;SDS011;23341;50.296;18.960;2022-08-21T07:28:29;5.20;;;4.18;;
37485;SDS011;23341;50.296;18.960;2022-08-21T07:33:33;2.72;;;2.10;;
37485;SDS011;23341;50.296;18.960;2022-08-21T07:38:38;2.35;;;1.80;;
37485;SDS011;23341;50.296;18.960;2022-08-21T07:43:42;1.08;;;0.98;;
37485;SDS011;23341;50.296;18.960;2022-08-21T07:48:47;1.35;;;0.90;;
37485;SDS011;23341;50.296;18.960;2022-08-21T07:53:53;1.00;;;0.75;;
37485;SDS011;23341;50.296;18.960;2022-08-21T07:58:59;0.98;;;0.98;;
37485;SDS011;23341;50.296;18.960;2022-08-21T08:04:05;1.10;;;0.80;;
37485;SDS011;23341;50.296;18.960;2022-08-21T08:09:08;1.15;;;0.70;;
37485;SDS011;23341;50.296;18.960;2022-08-21T08:14:13;2.00;;;0.88;;
37485;SDS011;23341;50.296;18.960;2022-08-21T08:19:17;1.88;;;0.60;;
37485;SDS011;23341;50.296;18.960;2022-08-21T08:24:20;1.15;;;0.70;;
37485;SDS011;23341;50.296;18.960;2022-08-21T14:00:14;4.95;;;4.50;;
37485;SDS011;23341;50.296;18.960;2022-08-21T14:05:21;5.50;;;5.07;;
37485;SDS011;23341;50.296;18.960;2022-08-21T14:10:28;6.50;;;5.93;;
37485;SDS011;23341;50.296;18.960;2022-08-21T14:15:34;6.78;;;6.10;;
37485;SDS011;23341;50.296;18.960;2022-08-21T14:20:38;10.18;;;8.90;;
37485;SDS011;23341;50.296;18.960;2022-08-21T14:25:43;15.48;;;13.18;;
37485;SDS011;23341;50.296;18.960;2022-08-21T14:30:49;14.88;;;12.82;;
37485;SDS011;23341;50.296;18.960;2022-08-21T14:35:54;17.00;;;15.20;;
37485;SDS011;23341;50.296;18.960;2022-08-21T14:40:59;14.45;;;11.73;;
37485;SDS011;23341;50.296;18.960;2022-08-21T14:46:23;24.25;;;18.92;;
37485;SDS011;23341;50.296;18.960;2022-08-21T14:51:29;10.73;;;9.73;;
37485;SDS011;23341;50.296;18.960;2022-08-21T14:56:33;11.88;;;8.45;;
37485;SDS011;23341;50.296;18.960;2022-08-21T15:01:39;14.27;;;10.77;;
37485;SDS011;23341;50.296;18.960;2022-08-21T15:06:42;12.73;;;9.20;;
37485;SDS011;23341;50.296;18.960;2022-08-21T15:11:46;10.95;;;9.02;;
37485;SDS011;23341;50.296;18.960;2022-08-21T15:16:52;10.73;;;9.80;;
37485;SDS011;23341;50.296;18.960;2022-08-21T15:21:55;13.15;;;11.23;;
37485;SDS011;23341;50.296;18.960;2022-08-21T15:27:00;8.55;;;7.50;;
37485;SDS011;23341;50.296;18.960;2022-08-21T15:32:16;18.30;;;14.73;;
37485;SDS011;23341;50.296;18.960;2022-08-21T15:37:23;21.42;;;14.93;;
37485;SDS011;23341;50.296;18.960;2022-08-21T15:42:27;17.45;;;15.32;;
37485;SDS011;23341;50.296;18.960;2022-08-21T15:47:34;15.70;;;11.73;;
37485;SDS011;23341;50.296;18.960;2022-08-21T15:52:39;7.78;;;6.80;;
37485;SDS011;23341;50.296;18.960;2022-08-21T15:57:43;7.25;;;5.70;;
37485;SDS011;23341;50.296;18.960;2022-08-21T16:03:00;13.55;;;10.07;;
37485;SDS011;23341;50.296;18.960;2022-08-21T16:08:07;17.58;;;15.00;;
37485;SDS011;23341;50.296;18.960;2022-08-21T16:13:14;17.20;;;13.57;;
37485;SDS011;23341;50.296;18.960;2022-08-21T16:18:21;9.18;;;8.27;;
37485;SDS011;23341;50.296;18.960;2022-08-21T16:23:27;9.20;;;7.85;;
37485;SDS011;23341;50.296;18.960;2022-08-21T16:28:31;16.73;;;13.57;;
37485;SDS011;23341;50.296;18.960;2022-08-21T16:33:40;18.60;;;13.63;;
37485;SDS011;23341;50.296;18.960;2022-08-21T16:38:45;42.25;;;24.73;;
37485;SDS011;23341;50.296;18.960;2022-08-21T16:43:49;32.47;;;23.70;;
37485;SDS011;23341;50.296;18.960;2022-08-21T16:48:55;26.52;;;19.00;;
37485;SDS011;23341;50.296;18.960;2022-08-21T16:53:58;19.08;;;16.00;;
37485;SDS011;23341;50.296;18.960;2022-08-21T16:59:03;17.40;;;13.65;;
37485;SDS011;23341;50.296;18.960;2022-08-21T17:04:08;25.85;;;19.42;;
37485;SDS011;23341;50.296;18.960;2022-08-21T17:09:12;12.27;;;10.65;;
37485;SDS011;23341;50.296;18.960;2022-08-21T17:14:16;9.50;;;8.07;;
37485;SDS011;23341;50.296;18.960;2022-08-21T17:19:23;4.05;;;3.28;;
37485;SDS011;23341;50.296;18.960;2022-08-21T17:24:27;4.25;;;3.75;;
37485;SDS011;23341;50.296;18.960;2022-08-21T17:29:32;3.75;;;3.33;;
37485;SDS011;23341;50.296;18.960;2022-08-21T17:34:39;5.65;;;3.97;;
37485;SDS011;23341;50.296;18.960;2022-08-21T17:39:43;4.82;;;4.32;;
37485;SDS011;23341;50.296;18.960;2022-08-21T17:44:48;4.22;;;3.83;;
37485;SDS011;23341;50.296;18.960;2022-08-21T17:49:53;5.97;;;3.83;;
37485;SDS011;23341;50.296;18.960;2022-08-21T17:54:57;3.38;;;2.92;;
37485;SDS011;23341;50.296;18.960;2022-08-21T18:00:01;4.93;;;3.97;;
37485;SDS011;23341;50.296;18.960;2022-08-21T18:05:13;3.83;;;2.67;;
37485;SDS011;23341;50.296;18.960;2022-08-21T18:10:17;3.45;;;3.20;;
37485;SDS011;23341;50.296;18.960;2022-08-21T18:15:21;8.88;;;5.55;;
37485;SDS011;23341;50.296;18.960;2022-08-21T18:20:27;16.60;;;14.02;;
37485;SDS011;23341;50.296;18.960;2022-08-21T18:25:31;18.02;;;14.23;;
37485;SDS011;23341;50.296;18.960;2022-08-21T18:30:36;9.48;;;8.48;;
37485;SDS011;23341;50.296;18.960;2022-08-21T18:35:43;10.63;;;6.05;;
37485;SDS011;23341;50.296;18.960;2022-08-21T18:40:47;6.47;;;5.88;;
37485;SDS011;23341;50.296;18.960;2022-08-21T18:51:01;13.63;;;11.25;;
37485;SDS011;23341;50.296;18.960;2022-08-21T18:56:07;9.95;;;9.00;;
37485;SDS011;23341;50.296;18.960;2022-08-21T19:01:17;8.27;;;6.53;;
37485;SDS011;23341;50.296;18.960;2022-08-21T19:06:21;6.43;;;4.63;;
37485;SDS011;23341;50.296;18.960;2022-08-21T19:11:25;4.53;;;2.58;;
37485;SDS011;23341;50.296;18.960;2022-08-21T19:16:31;4.97;;;4.55;;
37485;SDS011;23341;50.296;18.960;2022-08-21T19:21:36;24.65;;;20.27;;
37485;SDS011;23341;50.296;18.960;2022-08-21T19:26:41;17.10;;;14.60;;
37485;SDS011;23341;50.296;18.960;2022-08-21T19:31:44;6.85;;;6.20;;
37485;SDS011;23341;50.296;18.960;2022-08-21T19:36:50;4.50;;;4.10;;
37485;SDS011;23341;50.296;18.960;2022-08-21T19:41:57;3.03;;;2.83;;
37485;SDS011;23341;50.296;18.960;2022-08-21T19:47:02;3.25;;;2.95;;
37485;SDS011;23341;50.296;18.960;2022-08-21T19:52:08;5.35;;;4.85;;
37485;SDS011;23341;50.296;18.960;2022-08-21T19:57:15;5.63;;;4.88;;
37485;SDS011;23341;50.296;18.960;2022-08-21T20:02:19;7.70;;;7.00;;
37485;SDS011;23341;50.296;18.960;2022-08-21T20:07:23;6.85;;;6.25;;
37485;SDS011;23341;50.296;18.960;2022-08-21T20:12:28;6.70;;;6.20;;
37485;SDS011;23341;50.296;18.960;2022-08-21T20:17:32;6.53;;;5.38;;
37485;SDS011;23341;50.296;18.960;2022-08-21T20:22:37;6.55;;;5.95;;
37485;SDS011;23341;50.296;18.960;2022-08-21T20:27:42;5.30;;;4.80;;
37485;SDS011;23341;50.296;18.960;2022-08-21T20:32:48;4.13;;;3.83;;
37485;SDS011;23341;50.296;18.960;2022-08-21T20:37:53;8.10;;;4.35;;
37485;SDS011;23341;50.296;18.960;2022-08-21T20:43:00;5.00;;;4.30;;
37485;SDS011;23341;50.296;18.960;2022-08-21T20:48:05;10.13;;;5.03;;
37485;SDS011;23341;50.296;18.960;2022-08-21T20:53:15;6.93;;;5.18;;
37485;SDS011;23341;50.296;18.960;2022-08-21T20:58:27;6.88;;;6.00;;
37485;SDS011;23341;50.296;18.960;2022-08-21T21:03:36;7.87;;;7.13;;
37485;SDS011;23341;50.296;18.960;2022-08-21T21:08:47;10.57;;;9.70;;
37485;SDS011;23341;50.296;18.960;2022-08-21T21:13:55;12.43;;;11.32;;
37485;SDS011;23341;50.296;18.960;2022-08-21T21:19:05;12.00;;;10.90;;
37485;SDS011;23341;50.296;18.960;2022-08-21T21:24:14;10.40;;;9.60;;
37485;SDS011;23341;50.296;18.960;2022-08-21T21:29:29;7.90;;;6.80;;
37485;SDS011;23341;50.296;18.960;2022-08-21T21:34:42;4.97;;;4.45;;
37485;SDS011;23341;50.296;18.960;2022-08-21T21:39:54;6.18;;;3.63;;
37485;SDS011;23341;50.296;18.960;2022-08-21T21:45:07;2.45;;;2.25;;
37485;SDS011;23341;50.296;18.960;2022-08-21T21:50:20;3.58;;;2.17;;
37485;SDS011;23341;50.296;18.960;2022-08-21T21:55:47;2.88;;;1.50;;
37485;SDS011;23341;50.296;18.960;2022-08-21T22:01:04;1.53;;;1.17;;
37485;SDS011;23341;50.296;18.960;2022-08-21T22:06:14;1.73;;;1.40;;
37485;SDS011;23341;50.296;18.960;2022-08-21T22:11:31;1.38;;;1.25;;
37485;SDS011;23341;50.296;18.960;2022-08-21T22:16:42;2.60;;;1.65;;
37485;SDS011;23341;50.296;18.960;2022-08-21T22:21:48;1.52;;;1.42;;
37485;SDS011;23341;50.296;18.960;2022-08-21T22:26:57;2.10;;;1.90;;
37485;SDS011;23341;50.296;18.960;2022-08-21T22:32:05;1.85;;;1.75;;
37485;SDS011;23341;50.296;18.960;2022-08-21T22:37:12;2.10;;;1.90;;
37485;SDS011;23341;50.296;18.960;2022-08-21T22:42:21;1.52;;;1.42;;
37485;SDS011;23341;50.296;18.960;2022-08-21T22:47:30;3.15;;;2.00;;
37485;SDS011;23341;50.296;18.960;2022-08-21T22:52:37;2.88;;;2.67;;
37485;SDS011;23341;50.296;18.960;2022-08-21T22:57:59;3.33;;;3.03;;
37485;SDS011;23341;50.296;18.960;2022-08-21T23:03:06;4.40;;;4.00;;
37485;SDS011;23341;50.296;18.960;2022-08-21T23:08:23;7.10;;;4.57;;
37485;SDS011;23341;50.296;18.960;2022-08-21T23:13:38;5.38;;;4.85;;
37485;SDS011;23341;50.296;18.960;2022-08-21T23:18:47;6.57;;;5.47;;
37485;SDS011;23341;50.296;18.960;2022-08-21T23:24:02;7.15;;;6.45;;
37485;SDS011;23341;50.296;18.960;2022-08-21T23:29:24;7.38;;;6.75;;
37485;SDS011;23341;50.296;18.960;2022-08-21T23:34:40;8.52;;;7.60;;
37485;SDS011;23341;50.296;18.960;2022-08-21T23:39:50;10.70;;;7.85;;
37485;SDS011;23341;50.296;18.960;2022-08-21T23:45:10;10.10;;;7.20;;
37485;SDS011;23341;50.296;18.960;2022-08-21T23:50:36;8.48;;;7.68;;
37485;SDS011;23341;50.296;18.960;2022-08-21T23:55:50;9.07;;;8.10;;
